createdAt,value
2022-11-28T00:01:47.048Z,8.30
2022-11-28T00:06:50.868Z,8.40
2022-11-28T00:11:54.611Z,8.40
2022-11-28T00:16:59.853Z,8.50
2022-11-28T00:22:03.815Z,8.50
2022-11-28T00:27:07.752Z,8.50
2022-11-28T00:32:14.762Z,8.50
2022-11-28T00:37:18.421Z,8.50
2022-11-28T00:42:22.432Z,8.60
2022-11-28T00:47:27.435Z,8.60
2022-11-28T00:52:33.235Z,8.60
2022-11-28T00:57:37.034Z,8.60
2022-11-28T01:02:42.179Z,8.70
2022-11-28T01:07:46.008Z,8.70
2022-11-28T01:12:49.722Z,8.70
2022-11-28T01:17:54.715Z,8.70
2022-11-28T01:22:58.381Z,8.80
2022-11-28T01:28:02.052Z,8.70
2022-11-28T01:33:07.219Z,8.70
2022-11-28T01:38:10.858Z,8.70
2022-11-28T01:43:14.523Z,8.80
2022-11-28T01:48:24.421Z,8.70
2022-11-28T01:53:29.693Z,8.70
2022-11-28T01:58:35.419Z,8.70
2022-11-28T02:03:45.243Z,8.70
2022-11-28T02:08:52.482Z,8.70
2022-11-28T02:13:59.521Z,8.70
2022-11-28T02:19:37.848Z,8.70
2022-11-28T02:24:56.928Z,8.60
2022-11-28T02:30:11.639Z,8.70
2022-11-28T02:35:22.694Z,8.70
2022-11-28T02:40:30.452Z,8.70
2022-11-28T02:45:42.829Z,8.60
2022-11-28T02:50:54.426Z,8.60
2022-11-28T02:56:00.112Z,8.70
2022-11-28T03:01:04.558Z,8.70
2022-11-28T03:06:17.825Z,8.70
2022-11-28T03:11:30.002Z,8.60
2022-11-28T03:16:41.513Z,8.70
2022-11-28T03:21:52.396Z,8.60
2022-11-28T03:26:59.298Z,8.70
2022-11-28T03:32:08.058Z,8.60
2022-11-28T03:37:17.452Z,8.60
2022-11-28T03:42:24.789Z,8.70
2022-11-28T03:47:32.091Z,8.70
2022-11-28T03:52:41.882Z,8.60
2022-11-28T03:57:52.361Z,8.70
2022-11-28T04:03:03.498Z,8.60
2022-11-28T04:08:17.724Z,8.60
2022-11-28T04:13:25.156Z,8.60
2022-11-28T04:18:32.893Z,8.70
2022-11-28T04:23:41.392Z,8.60
2022-11-28T04:28:47.948Z,8.60
2022-11-28T04:33:57.690Z,8.70
2022-11-28T04:39:04.808Z,8.60
2022-11-28T04:44:11.322Z,8.70
2022-11-28T04:49:15.147Z,8.60
2022-11-28T04:54:25.450Z,8.60
2022-11-28T04:59:31.914Z,8.60
2022-11-28T05:04:39.107Z,8.60
2022-11-28T05:09:44.074Z,8.60
2022-11-28T05:14:47.648Z,8.70
2022-11-28T05:19:51.269Z,8.70
2022-11-28T05:24:56.366Z,8.70
2022-11-28T05:30:00.008Z,8.60
2022-11-28T05:35:04.417Z,8.70
2022-11-28T05:40:10.679Z,8.70
2022-11-28T05:45:14.318Z,8.70
2022-11-28T05:50:18.014Z,8.70
2022-11-28T05:55:23.148Z,8.70
2022-11-28T06:00:26.951Z,8.70
2022-11-28T06:05:42.307Z,8.70
2022-11-28T06:10:57.965Z,8.70
2022-11-28T06:16:01.685Z,8.70
2022-11-28T06:21:06.800Z,8.70
2022-11-28T06:26:13.413Z,8.70
2022-11-28T06:31:18.660Z,8.70
2022-11-28T06:36:23.455Z,8.80
2022-11-28T06:41:28.435Z,8.80
2022-11-28T06:46:32.044Z,8.80
2022-11-28T06:51:35.780Z,8.80
2022-11-28T06:56:41.109Z,8.70
2022-11-28T07:01:45.571Z,8.80
2022-11-28T07:06:49.398Z,8.80
2022-11-28T07:11:54.500Z,8.80
2022-11-28T07:16:58.319Z,8.80
2022-11-28T07:22:02.211Z,8.80
2022-11-28T07:27:07.358Z,8.90
2022-11-28T07:32:11.314Z,8.80
2022-11-28T07:37:16.099Z,8.80
2022-11-28T07:42:21.166Z,8.90
2022-11-28T07:47:39.699Z,8.90
2022-11-28T07:52:43.418Z,8.90
2022-11-28T07:57:48.474Z,8.90
2022-11-28T08:02:52.386Z,8.90
2022-11-28T08:07:56.131Z,8.90
2022-11-28T08:13:01.415Z,9.00
2022-11-28T08:18:05.277Z,9.00
2022-11-28T08:23:09.080Z,9.00
2022-11-28T08:28:14.225Z,9.00
2022-11-28T08:33:18.073Z,9.00
2022-11-28T08:38:21.816Z,9.00
2022-11-28T08:43:26.934Z,9.10
2022-11-28T08:48:30.992Z,9.10
2022-11-28T08:53:35.076Z,9.10
2022-11-28T08:58:40.567Z,9.10
2022-11-28T09:03:44.333Z,9.20
2022-11-28T09:08:48.745Z,9.10
2022-11-28T09:13:54.151Z,9.10
2022-11-28T09:18:59.416Z,9.20
2022-11-28T09:24:03.233Z,9.20
2022-11-28T09:29:08.362Z,9.30
2022-11-28T09:34:12.212Z,9.30
2022-11-28T09:39:16.928Z,9.30
2022-11-28T09:44:26.332Z,9.30
2022-11-28T09:49:40.670Z,9.40
2022-11-28T09:54:52.191Z,9.40
2022-11-28T09:59:57.219Z,9.40
2022-11-28T10:05:14.866Z,9.50
2022-11-28T10:10:24.692Z,9.50
2022-11-28T10:15:40.471Z,9.40
2022-11-28T10:20:48.009Z,9.60
2022-11-28T10:25:56.639Z,9.60
2022-11-28T10:31:08.231Z,9.60
2022-11-28T10:36:22.313Z,9.70
2022-11-28T10:41:33.261Z,9.70
2022-11-28T10:46:51.971Z,9.70
2022-11-28T10:52:04.511Z,9.70
2022-11-28T10:57:13.378Z,9.70
2022-11-28T11:02:27.833Z,9.70
2022-11-28T11:07:33.169Z,9.80
2022-11-28T11:12:36.937Z,9.80
2022-11-28T11:17:42.005Z,9.80
2022-11-28T11:22:55.725Z,9.90
2022-11-28T11:28:01.784Z,9.80
2022-11-28T11:33:14.136Z,9.90
2022-11-28T11:38:37.926Z,10.00
2022-11-28T11:43:41.950Z,9.90
2022-11-28T11:48:49.005Z,10.10
2022-11-28T11:54:04.331Z,10.00
2022-11-28T11:59:15.556Z,10.10
2022-11-28T12:04:44.681Z,10.00
2022-11-28T12:15:22.569Z,10.10
2022-11-28T12:20:47.513Z,10.20
2022-11-28T12:25:54.987Z,10.20
2022-11-28T12:31:10.600Z,10.20
2022-11-28T12:36:22.157Z,10.20
2022-11-28T12:41:46.496Z,10.30
2022-11-28T12:46:58.003Z,10.30
2022-11-28T12:52:23.367Z,10.30
2022-11-28T12:57:35.519Z,10.30
2022-11-28T13:02:50.650Z,10.40
2022-11-28T13:08:15.078Z,10.40
2022-11-28T13:13:24.047Z,10.50
2022-11-28T13:18:40.802Z,10.40
2022-11-28T13:23:52.414Z,10.40
2022-11-28T13:29:03.018Z,10.50
2022-11-28T13:34:12.650Z,10.40
2022-11-28T13:39:27.066Z,10.40
2022-11-28T13:44:37.528Z,10.50
2022-11-28T13:49:41.163Z,10.50
2022-11-28T13:54:52.597Z,10.50
2022-11-28T14:00:07.163Z,10.50
2022-11-28T14:05:38.680Z,10.50
2022-11-28T14:10:59.863Z,10.50
2022-11-28T14:16:17.851Z,10.50
2022-11-28T14:21:28.699Z,10.50
2022-11-28T14:26:36.323Z,10.50
2022-11-28T14:31:55.216Z,10.60
2022-11-28T14:37:38.033Z,10.60
2022-11-28T14:43:00.421Z,10.70
2022-11-28T14:48:30.049Z,10.70
2022-11-28T14:53:45.836Z,10.70
2022-11-28T14:58:53.701Z,10.70
2022-11-28T15:04:06.069Z,10.70
2022-11-28T15:09:18.667Z,10.70
2022-11-28T15:14:24.750Z,10.70
2022-11-28T15:19:31.912Z,10.60
2022-11-28T15:24:39.100Z,10.50
2022-11-28T15:29:53.573Z,10.50
2022-11-28T15:35:01.204Z,10.50
2022-11-28T15:40:07.175Z,10.40
2022-11-28T15:45:24.692Z,10.40
2022-11-28T15:50:34.795Z,10.50
2022-11-28T15:55:40.186Z,10.40
2022-11-28T16:00:49.746Z,10.30
2022-11-28T16:05:58.119Z,10.30
2022-11-28T16:11:04.312Z,10.30
2022-11-28T16:16:15.337Z,10.30
2022-11-28T16:21:19.240Z,10.30
2022-11-28T16:26:29.851Z,10.30
2022-11-28T16:31:36.023Z,10.20
2022-11-28T16:36:40.484Z,10.20
2022-11-28T16:41:51.952Z,10.20
2022-11-28T16:46:58.995Z,10.20
2022-11-28T16:52:45.603Z,10.20
2022-11-28T16:57:54.989Z,10.20
2022-11-28T17:03:00.081Z,10.10
2022-11-28T17:08:03.952Z,10.10
2022-11-28T17:13:08.492Z,10.10
2022-11-28T17:18:13.812Z,10.00
2022-11-28T17:23:24.737Z,10.10
2022-11-28T17:28:29.320Z,10.10
2022-11-28T17:33:34.972Z,10.00
2022-11-28T17:38:38.895Z,9.90
2022-11-28T17:43:43.036Z,9.90
2022-11-28T17:48:48.120Z,9.90
2022-11-28T17:53:53.982Z,9.90
2022-11-28T17:58:57.864Z,9.90
2022-11-28T18:04:04.604Z,9.90
2022-11-28T18:09:12.015Z,9.90
2022-11-28T18:14:19.622Z,9.90
2022-11-28T18:19:25.577Z,9.80
2022-11-28T18:24:29.771Z,9.80
2022-11-28T18:29:34.417Z,9.80
2022-11-28T18:34:39.562Z,9.70
2022-11-28T18:39:43.646Z,9.70
2022-11-28T18:44:47.818Z,9.70
2022-11-28T18:49:53.066Z,9.70
2022-11-28T18:54:56.760Z,9.70
2022-11-28T19:00:01.471Z,9.60
2022-11-28T19:05:08.150Z,9.70
2022-11-28T19:10:12.724Z,9.60
2022-11-28T19:15:16.747Z,9.60
2022-11-28T19:20:22.558Z,9.50
2022-11-28T19:25:27.677Z,9.60
2022-11-28T19:30:31.737Z,9.60
2022-11-28T19:35:36.870Z,9.50
2022-11-28T19:40:40.846Z,9.50
2022-11-28T19:45:44.706Z,9.50
2022-11-28T19:50:51.253Z,9.50
2022-11-28T19:55:55.777Z,9.40
2022-11-28T20:01:05.925Z,9.40
2022-11-28T20:06:12.819Z,9.40
2022-11-28T20:11:18.606Z,9.40
2022-11-28T20:16:22.618Z,9.40
2022-11-28T20:21:28.543Z,9.40
2022-11-28T20:26:34.923Z,9.30
2022-11-28T20:31:45.559Z,9.40
2022-11-28T20:36:54.289Z,9.30
2022-11-28T20:41:58.038Z,9.30
2022-11-28T20:47:01.994Z,9.30
2022-11-28T20:52:07.167Z,9.30
2022-11-28T20:57:21.340Z,9.30
2022-11-28T21:02:26.213Z,9.20
2022-11-28T21:07:31.743Z,9.20
2022-11-28T21:12:35.639Z,9.20
2022-11-28T21:17:39.457Z,9.20
2022-11-28T21:22:44.591Z,9.20
2022-11-28T21:27:48.890Z,9.20
2022-11-28T21:32:52.776Z,9.10
2022-11-28T21:37:58.694Z,9.10
2022-11-28T21:43:02.551Z,9.10
2022-11-28T21:48:06.653Z,9.10
2022-11-28T21:53:11.754Z,9.00
2022-11-28T21:58:15.447Z,9.10
2022-11-28T22:03:21.208Z,9.00
2022-11-28T22:08:26.854Z,8.90
2022-11-28T22:13:32.282Z,9.00
2022-11-28T22:18:36.047Z,8.90
2022-11-28T22:23:41.476Z,8.80
2022-11-28T22:28:49.111Z,8.90
2022-11-28T22:33:57.326Z,8.80
2022-11-28T22:39:02.969Z,8.80
2022-11-28T22:44:07.394Z,8.80
2022-11-28T22:49:11.475Z,8.70
2022-11-28T22:54:16.799Z,8.80
2022-11-28T22:59:20.819Z,8.80
2022-11-28T23:04:26.171Z,8.70
2022-11-28T23:09:31.295Z,8.70
2022-11-28T23:14:35.159Z,8.80
2022-11-28T23:19:40.147Z,8.70
2022-11-28T23:24:46.042Z,8.70
2022-11-28T23:29:49.999Z,8.60
2022-11-28T23:34:54.466Z,8.60
2022-11-28T23:39:59.507Z,8.60
2022-11-28T23:45:03.311Z,8.60
2022-11-28T23:50:08.491Z,8.60
2022-11-28T23:55:13.557Z,8.60
